sensor_id;sensor_type;location;lat;lon;timestamp;pressure;altitude;pressure_sealevel;temperature;humidity
70909;BME280;58554;52.006;5.926;2023-05-23T00:00:42;100957.56;;;18.20;58.32
70909;BME280;58554;52.006;5.926;2023-05-23T00:03:09;100949.66;;;18.18;58.17
70909;BME280;58554;52.006;5.926;2023-05-23T00:05:36;100957.56;;;18.20;57.96
70909;BME280;58554;52.006;5.926;2023-05-23T00:08:05;100953.03;;;18.20;58.32
70909;BME280;58554;52.006;5.926;2023-05-23T00:10:31;100958.16;;;18.24;58.33
70909;BME280;58554;52.006;5.926;2023-05-23T00:12:58;100953.63;;;18.24;58.24
70909;BME280;58554;52.006;5.926;2023-05-23T00:15:24;100958.16;;;18.24;58.36
70909;BME280;58554;52.006;5.926;2023-05-23T00:17:51;100959.13;;;18.23;58.40
70909;BME280;58554;52.006;5.926;2023-05-23T00:20:18;100961.06;;;18.20;58.48
70909;BME280;58554;52.006;5.926;2023-05-23T00:22:44;100963.75;;;18.20;58.52
70909;BME280;58554;52.006;5.926;2023-05-23T00:25:13;100962.91;;;18.20;58.49
70909;BME280;58554;52.006;5.926;2023-05-23T00:27:40;100959.53;;;18.18;58.43
70909;BME280;58554;52.006;5.926;2023-05-23T00:30:07;100958.69;;;18.17;58.56
70909;BME280;58554;52.006;5.926;2023-05-23T00:32:34;100962.91;;;18.20;58.89
70909;BME280;58554;52.006;5.926;2023-05-23T00:35:01;100960.13;;;18.21;58.71
70909;BME280;58554;52.006;5.926;2023-05-23T00:37:27;100975.19;;;18.23;58.84
70909;BME280;58554;52.006;5.926;2023-05-23T00:39:54;100972.25;;;18.26;58.89
70909;BME280;58554;52.006;5.926;2023-05-23T00:42:23;100971.97;;;18.29;58.64
70909;BME280;58554;52.006;5.926;2023-05-23T00:44:49;100969.69;;;18.24;58.82
70909;BME280;58554;52.006;5.926;2023-05-23T00:47:16;100978.13;;;18.19;59.19
70909;BME280;58554;52.006;5.926;2023-05-23T00:49:43;100972.06;;;18.17;59.22
70909;BME280;58554;52.006;5.926;2023-05-23T00:52:10;100978.78;;;18.12;59.10
70909;BME280;58554;52.006;5.926;2023-05-23T00:54:38;100980.56;;;18.01;59.20
70909;BME280;58554;52.006;5.926;2023-05-23T00:57:05;100974.88;;;17.95;59.32
70909;BME280;58554;52.006;5.926;2023-05-23T00:59:36;100987.09;;;17.88;60.05
70909;BME280;58554;52.006;5.926;2023-05-23T01:02:04;100988.06;;;17.87;60.01
70909;BME280;58554;52.006;5.926;2023-05-23T01:04:31;100999.59;;;17.87;59.95
70909;BME280;58554;52.006;5.926;2023-05-23T01:06:57;100984.06;;;17.81;60.00
70909;BME280;58554;52.006;5.926;2023-05-23T01:09:26;100991.38;;;17.79;60.29
70909;BME280;58554;52.006;5.926;2023-05-23T01:12:02;100992.97;;;17.82;60.49
70909;BME280;58554;52.006;5.926;2023-05-23T01:14:50;100992.69;;;17.85;60.47
70909;BME280;58554;52.006;5.926;2023-05-23T01:17:29;100993.41;;;17.87;60.44
70909;BME280;58554;52.006;5.926;2023-05-23T01:20:07;100995.63;;;17.82;60.41
70909;BME280;58554;52.006;5.926;2023-05-23T01:22:54;101005.09;;;17.74;60.55
70909;BME280;58554;52.006;5.926;2023-05-23T01:25:43;101005.50;;;17.70;60.96
70909;BME280;58554;52.006;5.926;2023-05-23T01:28:25;100998.59;;;17.67;60.62
70909;BME280;58554;52.006;5.926;2023-05-23T01:30:58;100993.25;;;17.67;60.78
70909;BME280;58554;52.006;5.926;2023-05-23T01:33:30;100997.47;;;17.70;60.92
70909;BME280;58554;52.006;5.926;2023-05-23T01:36:00;100996.47;;;17.71;60.83
70909;BME280;58554;52.006;5.926;2023-05-23T01:38:27;100996.38;;;17.72;60.98
70909;BME280;58554;52.006;5.926;2023-05-23T01:40:54;100997.91;;;17.75;60.70
70909;BME280;58554;52.006;5.926;2023-05-23T01:43:24;100993.19;;;17.78;60.44
70909;BME280;58554;52.006;5.926;2023-05-23T01:45:52;101001.22;;;17.78;60.36
70909;BME280;58554;52.006;5.926;2023-05-23T01:48:21;100999.63;;;17.76;60.56
70909;BME280;58554;52.006;5.926;2023-05-23T01:50:51;101000.75;;;17.73;60.47
70909;BME280;58554;52.006;5.926;2023-05-23T01:53:20;101002.56;;;17.73;60.33
70909;BME280;58554;52.006;5.926;2023-05-23T01:55:48;100999.03;;;17.72;60.72
70909;BME280;58554;52.006;5.926;2023-05-23T01:58:16;101004.66;;;17.69;60.35
70909;BME280;58554;52.006;5.926;2023-05-23T02:00:46;101009.41;;;17.66;60.72
70909;BME280;58554;52.006;5.926;2023-05-23T02:03:13;101016.38;;;17.57;60.52
70909;BME280;58554;52.006;5.926;2023-05-23T02:05:40;101021.25;;;17.52;60.68
70909;BME280;58554;52.006;5.926;2023-05-23T02:08:06;101022.63;;;17.46;60.45
70909;BME280;58554;52.006;5.926;2023-05-23T02:10:32;101025.53;;;17.43;60.84
70909;BME280;58554;52.006;5.926;2023-05-23T02:12:59;101012.66;;;17.37;60.78
70909;BME280;58554;52.006;5.926;2023-05-23T02:15:25;101018.66;;;17.29;61.01
70909;BME280;58554;52.006;5.926;2023-05-23T02:17:55;101017.94;;;17.27;61.08
70909;BME280;58554;52.006;5.926;2023-05-23T02:20:21;101022.16;;;17.30;61.34
70909;BME280;58554;52.006;5.926;2023-05-23T02:22:47;101026.19;;;17.35;61.18
70909;BME280;58554;52.006;5.926;2023-05-23T02:25:14;101024.72;;;17.31;61.16
70909;BME280;58554;52.006;5.926;2023-05-23T02:27:40;101026.53;;;17.31;61.44
70909;BME280;58554;52.006;5.926;2023-05-23T02:30:08;101028.63;;;17.27;61.30
70909;BME280;58554;52.006;5.926;2023-05-23T02:32:35;101032.25;;;17.26;61.37
70909;BME280;58554;52.006;5.926;2023-05-23T02:35:05;101038.59;;;17.25;61.37
70909;BME280;58554;52.006;5.926;2023-05-23T02:37:32;101039.53;;;17.24;61.41
70909;BME280;58554;52.006;5.926;2023-05-23T02:39:59;101032.38;;;17.25;61.46
70909;BME280;58554;52.006;5.926;2023-05-23T02:42:25;101047.84;;;17.21;61.41
70909;BME280;58554;52.006;5.926;2023-05-23T02:44:52;101048.06;;;17.18;61.62
70909;BME280;58554;52.006;5.926;2023-05-23T02:47:18;101045.66;;;17.15;61.53
70909;BME280;58554;52.006;5.926;2023-05-23T02:49:45;101052.06;;;17.12;61.43
70909;BME280;58554;52.006;5.926;2023-05-23T02:52:14;101054.00;;;17.10;61.71
70909;BME280;58554;52.006;5.926;2023-05-23T02:54:40;101054.88;;;17.11;61.74
70909;BME280;58554;52.006;5.926;2023-05-23T02:57:07;101055.72;;;17.11;61.55
70909;BME280;58554;52.006;5.926;2023-05-23T02:59:33;101047.38;;;17.05;61.72
70909;BME280;58554;52.006;5.926;2023-05-23T03:02:00;101050.88;;;17.05;61.65
70909;BME280;58554;52.006;5.926;2023-05-23T03:04:26;101051.00;;;17.04;61.76
70909;BME280;58554;52.006;5.926;2023-05-23T03:06:53;101046.63;;;17.03;61.66
70909;BME280;58554;52.006;5.926;2023-05-23T03:09:22;101043.22;;;17.00;61.73
70909;BME280;58554;52.006;5.926;2023-05-23T03:11:49;101043.72;;;16.94;61.83
70909;BME280;58554;52.006;5.926;2023-05-23T03:14:15;101056.47;;;16.91;61.89
70909;BME280;58554;52.006;5.926;2023-05-23T03:16:42;101045.91;;;16.89;61.94
70909;BME280;58554;52.006;5.926;2023-05-23T03:19:08;101053.06;;;16.89;61.70
70909;BME280;58554;52.006;5.926;2023-05-23T03:21:35;101053.44;;;16.84;62.00
70909;BME280;58554;52.006;5.926;2023-05-23T03:24:01;101052.59;;;16.84;62.01
70909;BME280;58554;52.006;5.926;2023-05-23T03:26:31;101046.38;;;16.83;62.18
70909;BME280;58554;52.006;5.926;2023-05-23T03:28:57;101055.56;;;16.79;62.11
70909;BME280;58554;52.006;5.926;2023-05-23T03:31:24;101053.06;;;16.77;62.27
70909;BME280;58554;52.006;5.926;2023-05-23T03:33:50;101051.09;;;16.79;62.28
70909;BME280;58554;52.006;5.926;2023-05-23T03:36:16;101061.91;;;16.78;62.11
70909;BME280;58554;52.006;5.926;2023-05-23T03:38:43;101055.84;;;16.76;62.09
70909;BME280;58554;52.006;5.926;2023-05-23T03:41:09;101056.31;;;16.70;61.88
70909;BME280;58554;52.006;5.926;2023-05-23T03:43:38;101057.16;;;16.59;62.07
70909;BME280;58554;52.006;5.926;2023-05-23T03:46:05;101066.97;;;16.47;61.94
70909;BME280;58554;52.006;5.926;2023-05-23T03:48:32;101066.97;;;16.36;62.18
70909;BME280;58554;52.006;5.926;2023-05-23T03:50:58;101074.06;;;16.24;62.09
70909;BME280;58554;52.006;5.926;2023-05-23T03:53:25;101070.75;;;16.09;62.11
70909;BME280;58554;52.006;5.926;2023-05-23T03:55:51;101069.03;;;15.97;62.49
70909;BME280;58554;52.006;5.926;2023-05-23T03:58:17;101068.25;;;15.84;62.50
70909;BME280;58554;52.006;5.926;2023-05-23T04:00:47;101074.22;;;15.74;62.74
70909;BME280;58554;52.006;5.926;2023-05-23T04:03:13;101080.00;;;15.68;62.87
70909;BME280;58554;52.006;5.926;2023-05-23T04:05:41;101087.25;;;15.66;62.73
70909;BME280;58554;52.006;5.926;2023-05-23T04:08:07;101082.38;;;15.60;62.85
70909;BME280;58554;52.006;5.926;2023-05-23T04:10:34;101082.63;;;15.57;63.09
70909;BME280;58554;52.006;5.926;2023-05-23T04:13:01;101092.75;;;15.52;62.98
70909;BME280;58554;52.006;5.926;2023-05-23T04:15:27;101089.69;;;15.45;62.88
70909;BME280;58554;52.006;5.926;2023-05-23T04:17:56;101095.47;;;15.39;63.14
70909;BME280;58554;52.006;5.926;2023-05-23T04:20:23;101090.47;;;15.34;63.10
70909;BME280;58554;52.006;5.926;2023-05-23T04:22:49;101100.38;;;15.32;63.13
70909;BME280;58554;52.006;5.926;2023-05-23T04:25:16;101093.69;;;15.27;63.31
70909;BME280;58554;52.006;5.926;2023-05-23T04:27:42;101097.75;;;15.19;63.52
70909;BME280;58554;52.006;5.926;2023-05-23T04:30:10;101102.69;;;15.13;63.56
70909;BME280;58554;52.006;5.926;2023-05-23T04:32:38;101104.94;;;15.06;63.77
70909;BME280;58554;52.006;5.926;2023-05-23T04:35:08;101110.78;;;14.98;63.74
70909;BME280;58554;52.006;5.926;2023-05-23T04:37:35;101120.06;;;14.93;63.79
70909;BME280;58554;52.006;5.926;2023-05-23T04:40:01;101118.56;;;14.89;64.00
70909;BME280;58554;52.006;5.926;2023-05-23T04:42:28;101120.72;;;14.84;63.96
70909;BME280;58554;52.006;5.926;2023-05-23T04:44:54;101125.38;;;14.80;64.10
70909;BME280;58554;52.006;5.926;2023-05-23T04:47:21;101120.38;;;14.75;63.96
70909;BME280;58554;52.006;5.926;2023-05-23T04:49:47;101124.13;;;14.73;64.02
70909;BME280;58554;52.006;5.926;2023-05-23T04:52:16;101126.78;;;14.73;64.08
70909;BME280;58554;52.006;5.926;2023-05-23T04:54:44;101132.09;;;14.73;64.17
70909;BME280;58554;52.006;5.926;2023-05-23T04:57:11;101134.00;;;14.71;64.31
70909;BME280;58554;52.006;5.926;2023-05-23T04:59:38;101145.91;;;14.65;64.20
70909;BME280;58554;52.006;5.926;2023-05-23T05:02:04;101146.50;;;14.56;64.24
70909;BME280;58554;52.006;5.926;2023-05-23T05:04:31;101152.16;;;14.51;64.26
70909;BME280;58554;52.006;5.926;2023-05-23T05:06:57;101155.78;;;14.50;64.57
70909;BME280;58554;52.006;5.926;2023-05-23T05:09:26;101150.47;;;14.50;64.60
70909;BME280;58554;52.006;5.926;2023-05-23T05:11:53;101164.94;;;14.46;64.82
70909;BME280;58554;52.006;5.926;2023-05-23T05:14:20;101174.06;;;14.42;64.83
70909;BME280;58554;52.006;5.926;2023-05-23T05:16:46;101163.09;;;14.34;64.82
70909;BME280;58554;52.006;5.926;2023-05-23T05:19:13;101166.16;;;14.28;65.13
70909;BME280;58554;52.006;5.926;2023-05-23T05:21:39;101173.03;;;14.17;65.00
70909;BME280;58554;52.006;5.926;2023-05-23T05:24:05;101178.75;;;14.11;65.51
70909;BME280;58554;52.006;5.926;2023-05-23T05:26:35;101171.94;;;14.07;65.58
70909;BME280;58554;52.006;5.926;2023-05-23T05:29:02;101186.28;;;14.05;65.68
70909;BME280;58554;52.006;5.926;2023-05-23T05:31:28;101189.13;;;14.02;65.89
70909;BME280;58554;52.006;5.926;2023-05-23T05:33:55;101205.41;;;13.97;65.59
70909;BME280;58554;52.006;5.926;2023-05-23T05:36:21;101201.22;;;13.93;65.75
70909;BME280;58554;52.006;5.926;2023-05-23T05:38:48;101197.91;;;13.89;65.85
70909;BME280;58554;52.006;5.926;2023-05-23T05:41:14;101204.19;;;13.88;65.92
70909;BME280;58554;52.006;5.926;2023-05-23T05:43:43;101207.78;;;13.87;65.90
70909;BME280;58554;52.006;5.926;2023-05-23T05:46:10;101199.28;;;13.82;65.81
70909;BME280;58554;52.006;5.926;2023-05-23T05:48:37;101197.97;;;13.75;66.15
70909;BME280;58554;52.006;5.926;2023-05-23T05:51:03;101214.19;;;13.70;66.16
70909;BME280;58554;52.006;5.926;2023-05-23T05:53:30;101217.91;;;13.68;66.12
70909;BME280;58554;52.006;5.926;2023-05-23T05:55:56;101220.75;;;13.65;66.18
70909;BME280;58554;52.006;5.926;2023-05-23T05:58:23;101212.03;;;13.63;66.31
70909;BME280;58554;52.006;5.926;2023-05-23T06:00:53;101219.88;;;13.64;66.31
70909;BME280;58554;52.006;5.926;2023-05-23T06:03:20;101223.22;;;13.68;66.37
70909;BME280;58554;52.006;5.926;2023-05-23T06:05:46;101227.59;;;13.69;66.12
70909;BME280;58554;52.006;5.926;2023-05-23T06:08:13;101226.84;;;13.67;66.16
70909;BME280;58554;52.006;5.926;2023-05-23T06:10:39;101224.34;;;13.64;66.20
70909;BME280;58554;52.006;5.926;2023-05-23T06:13:06;101230.50;;;13.64;66.24
70909;BME280;58554;52.006;5.926;2023-05-23T06:15:32;101243.72;;;13.66;65.88
70909;BME280;58554;52.006;5.926;2023-05-23T06:18:02;101240.50;;;13.61;66.02
70909;BME280;58554;52.006;5.926;2023-05-23T06:20:28;101244.19;;;13.58;66.13
70909;BME280;58554;52.006;5.926;2023-05-23T06:22:54;101238.19;;;13.54;65.98
70909;BME280;58554;52.006;5.926;2023-05-23T06:25:21;101238.09;;;13.56;65.91
70909;BME280;58554;52.006;5.926;2023-05-23T06:27:47;101251.31;;;13.57;66.09
70909;BME280;58554;52.006;5.926;2023-05-23T06:30:14;101246.25;;;13.53;65.78
70909;BME280;58554;52.006;5.926;2023-05-23T06:32:41;101246.53;;;13.48;65.93
70909;BME280;58554;52.006;5.926;2023-05-23T06:35:10;101260.69;;;13.49;65.70
70909;BME280;58554;52.006;5.926;2023-05-23T06:37:37;101264.19;;;13.49;65.76
70909;BME280;58554;52.006;5.926;2023-05-23T06:40:05;101258.03;;;13.49;65.39
70909;BME280;58554;52.006;5.926;2023-05-23T06:42:32;101263.50;;;13.46;65.35
70909;BME280;58554;52.006;5.926;2023-05-23T06:44:58;101261.53;;;13.49;65.38
70909;BME280;58554;52.006;5.926;2023-05-23T06:47:25;101261.53;;;13.49;65.19
70909;BME280;58554;52.006;5.926;2023-05-23T06:49:52;101266.75;;;13.51;65.10
70909;BME280;58554;52.006;5.926;2023-05-23T06:52:21;101271.97;;;13.52;64.87
70909;BME280;58554;52.006;5.926;2023-05-23T06:54:47;101278.13;;;13.53;64.73
70909;BME280;58554;52.006;5.926;2023-05-23T06:57:14;101280.88;;;13.51;64.69
70909;BME280;58554;52.006;5.926;2023-05-23T06:59:40;101269.50;;;13.49;64.44
70909;BME280;58554;52.006;5.926;2023-05-23T07:02:07;101276.69;;;13.47;64.29
70909;BME280;58554;52.006;5.926;2023-05-23T07:04:33;101280.72;;;13.54;64.20
70909;BME280;58554;52.006;5.926;2023-05-23T07:07:00;101288.59;;;13.70;64.37
70909;BME280;58554;52.006;5.926;2023-05-23T07:09:29;101278.16;;;13.96;63.96
70909;BME280;58554;52.006;5.926;2023-05-23T07:11:56;101274.97;;;14.18;63.37
70909;BME280;58554;52.006;5.926;2023-05-23T07:14:22;101277.50;;;14.34;63.03
70909;BME280;58554;52.006;5.926;2023-05-23T07:16:49;101269.47;;;14.48;62.56
70909;BME280;58554;52.006;5.926;2023-05-23T07:19:15;101277.00;;;14.69;62.25
70909;BME280;58554;52.006;5.926;2023-05-23T07:21:41;101280.91;;;14.90;61.66
70909;BME280;58554;52.006;5.926;2023-05-23T07:24:08;101284.75;;;14.99;61.17
70909;BME280;58554;52.006;5.926;2023-05-23T07:26:37;101284.09;;;15.08;60.69
70909;BME280;58554;52.006;5.926;2023-05-23T07:29:04;101297.13;;;15.13;60.15
70909;BME280;58554;52.006;5.926;2023-05-23T07:31:30;101297.75;;;15.16;59.98
70909;BME280;58554;52.006;5.926;2023-05-23T07:33:56;101300.75;;;15.25;59.77
70909;BME280;58554;52.006;5.926;2023-05-23T07:36:23;101304.28;;;15.25;59.43
70909;BME280;58554;52.006;5.926;2023-05-23T07:38:49;101310.66;;;15.23;58.97
70909;BME280;58554;52.006;5.926;2023-05-23T07:41:16;101308.31;;;15.18;58.87
70909;BME280;58554;52.006;5.926;2023-05-23T07:43:45;101310.13;;;15.17;59.06
70909;BME280;58554;52.006;5.926;2023-05-23T07:46:11;101311.22;;;15.28;58.89
70909;BME280;58554;52.006;5.926;2023-05-23T07:48:38;101305.22;;;15.37;58.43
70909;BME280;58554;52.006;5.926;2023-05-23T07:51:04;101313.34;;;15.48;58.36
70909;BME280;58554;52.006;5.926;2023-05-23T07:53:31;101308.97;;;15.60;58.15
70909;BME280;58554;52.006;5.926;2023-05-23T07:55:57;101324.03;;;15.61;57.82
70909;BME280;58554;52.006;5.926;2023-05-23T07:58:24;101332.22;;;15.58;58.15
70909;BME280;58554;52.006;5.926;2023-05-23T08:00:53;101327.84;;;15.57;57.68
70909;BME280;58554;52.006;5.926;2023-05-23T08:03:19;101315.59;;;15.54;57.85
70909;BME280;58554;52.006;5.926;2023-05-23T08:05:46;101316.53;;;15.53;58.09
70909;BME280;58554;52.006;5.926;2023-05-23T08:08:12;101320.06;;;15.54;58.10
70909;BME280;58554;52.006;5.926;2023-05-23T08:10:39;101314.72;;;15.54;58.19
70909;BME280;58554;52.006;5.926;2023-05-23T08:13:07;101319.97;;;15.55;57.95
70909;BME280;58554;52.006;5.926;2023-05-23T08:15:34;101333.72;;;15.49;58.06
70909;BME280;58554;52.006;5.926;2023-05-23T08:18:04;101332.53;;;15.41;58.01
70909;BME280;58554;52.006;5.926;2023-05-23T08:20:30;101333.81;;;15.35;58.14
70909;BME280;58554;52.006;5.926;2023-05-23T08:22:58;101340.75;;;15.37;58.32
70909;BME280;58554;52.006;5.926;2023-05-23T08:25:25;101332.97;;;15.47;57.91
70909;BME280;58554;52.006;5.926;2023-05-23T08:27:51;101333.19;;;15.57;57.98
70909;BME280;58554;52.006;5.926;2023-05-23T08:30:17;101334.03;;;15.70;57.56
70909;BME280;58554;52.006;5.926;2023-05-23T08:32:44;101341.19;;;15.83;57.13
70909;BME280;58554;52.006;5.926;2023-05-23T08:35:13;101341.19;;;15.95;56.54
70909;BME280;58554;52.006;5.926;2023-05-23T08:37:40;101352.81;;;16.07;56.43
70909;BME280;58554;52.006;5.926;2023-05-23T08:40:12;101352.28;;;16.15;55.99
70909;BME280;58554;52.006;5.926;2023-05-23T08:42:39;101352.44;;;16.25;55.65
70909;BME280;58554;52.006;5.926;2023-05-23T08:45:08;101350.59;;;16.38;55.65
70909;BME280;58554;52.006;5.926;2023-05-23T08:47:36;101348.84;;;16.50;55.07
70909;BME280;58554;52.006;5.926;2023-05-23T08:50:04;101354.38;;;16.59;54.97
70909;BME280;58554;52.006;5.926;2023-05-23T08:52:36;101362.47;;;16.71;55.04
70909;BME280;58554;52.006;5.926;2023-05-23T08:55:10;101361.13;;;16.76;54.90
70909;BME280;58554;52.006;5.926;2023-05-23T08:57:38;101351.44;;;16.75;54.70
70909;BME280;58554;52.006;5.926;2023-05-23T09:00:08;101370.13;;;16.75;54.63
70909;BME280;58554;52.006;5.926;2023-05-23T09:02:36;101365.84;;;16.73;54.57
70909;BME280;58554;52.006;5.926;2023-05-23T09:05:05;101365.84;;;16.73;54.36
70909;BME280;58554;52.006;5.926;2023-05-23T09:07:35;101366.06;;;16.70;54.43
70909;BME280;58554;52.006;5.926;2023-05-23T09:10:02;101376.75;;;16.70;54.17
70909;BME280;58554;52.006;5.926;2023-05-23T09:12:30;101368.00;;;16.68;54.26
70909;BME280;58554;52.006;5.926;2023-05-23T09:14:57;101359.66;;;16.72;53.88
70909;BME280;58554;52.006;5.926;2023-05-23T09:17:23;101382.28;;;16.79;54.00
70909;BME280;58554;52.006;5.926;2023-05-23T09:19:50;101378.09;;;16.88;53.39
70909;BME280;58554;52.006;5.926;2023-05-23T09:22:22;101383.94;;;16.93;53.41
70909;BME280;58554;52.006;5.926;2023-05-23T09:24:53;101384.97;;;17.04;53.14
70909;BME280;58554;52.006;5.926;2023-05-23T09:27:21;101398.84;;;17.09;52.83
70909;BME280;58554;52.006;5.926;2023-05-23T09:29:49;101398.84;;;17.09;52.65
70909;BME280;58554;52.006;5.926;2023-05-23T09:32:16;101389.84;;;17.10;52.62
70909;BME280;58554;52.006;5.926;2023-05-23T09:34:55;101383.41;;;17.12;52.25
70909;BME280;58554;52.006;5.926;2023-05-23T09:37:28;101393.78;;;17.17;52.53
70909;BME280;58554;52.006;5.926;2023-05-23T09:39:59;101388.72;;;17.25;51.94
70909;BME280;58554;52.006;5.926;2023-05-23T09:42:31;101389.03;;;17.20;51.62
70909;BME280;58554;52.006;5.926;2023-05-23T09:44:58;101386.63;;;17.17;51.78
70909;BME280;58554;52.006;5.926;2023-05-23T09:47:25;101388.81;;;17.24;51.77
70909;BME280;58554;52.006;5.926;2023-05-23T09:49:53;101393.47;;;17.33;51.87
70909;BME280;58554;52.006;5.926;2023-05-23T09:52:20;101394.47;;;17.43;51.53
70909;BME280;58554;52.006;5.926;2023-05-23T09:54:46;101396.47;;;17.52;51.16
70909;BME280;58554;52.006;5.926;2023-05-23T09:57:15;101392.31;;;17.59;51.09
70909;BME280;58554;52.006;5.926;2023-05-23T09:59:51;101390.00;;;17.55;50.63
70909;BME280;58554;52.006;5.926;2023-05-23T10:02:48;101391.44;;;17.48;50.39
70909;BME280;58554;52.006;5.926;2023-05-23T10:05:29;101408.47;;;17.47;50.80
70909;BME280;58554;52.006;5.926;2023-05-23T10:08:00;101398.41;;;17.50;50.93
70909;BME280;58554;52.006;5.926;2023-05-23T10:10:31;101381.38;;;17.51;50.50
70909;BME280;58554;52.006;5.926;2023-05-23T10:13:02;101378.81;;;17.50;50.76
70909;BME280;58554;52.006;5.926;2023-05-23T10:15:36;101384.28;;;17.48;50.05
70909;BME280;58554;52.006;5.926;2023-05-23T10:18:09;101392.41;;;17.47;50.29
70909;BME280;58554;52.006;5.926;2023-05-23T10:20:42;101384.41;;;17.47;49.99
70909;BME280;58554;52.006;5.926;2023-05-23T10:23:14;101380.00;;;17.46;50.06
70909;BME280;58554;52.006;5.926;2023-05-23T10:25:42;101383.09;;;17.52;49.81
70909;BME280;58554;52.006;5.926;2023-05-23T10:28:13;101387.72;;;17.61;49.62
70909;BME280;58554;52.006;5.926;2023-05-23T10:30:41;101392.34;;;17.71;49.38
70909;BME280;58554;52.006;5.926;2023-05-23T10:33:09;101391.75;;;17.67;48.89
70909;BME280;58554;52.006;5.926;2023-05-23T10:35:44;101402.34;;;17.69;49.13
70909;BME280;58554;52.006;5.926;2023-05-23T10:38:27;101383.75;;;17.78;48.76
70909;BME280;58554;52.006;5.926;2023-05-23T10:41:08;101396.06;;;17.92;48.92
70909;BME280;58554;52.006;5.926;2023-05-23T10:43:46;101393.13;;;17.95;48.06
70909;BME280;58554;52.006;5.926;2023-05-23T10:46:20;101383.63;;;17.91;48.34
70909;BME280;58554;52.006;5.926;2023-05-23T10:48:53;101388.75;;;17.94;47.80
70909;BME280;58554;52.006;5.926;2023-05-23T10:51:21;101370.16;;;17.93;47.59
70909;BME280;58554;52.006;5.926;2023-05-23T10:53:52;101392.53;;;17.92;48.14
70909;BME280;58554;52.006;5.926;2023-05-23T10:56:20;101395.69;;;17.97;47.90
70909;BME280;58554;52.006;5.926;2023-05-23T10:58:54;101382.44;;;18.07;47.64
70909;BME280;58554;52.006;5.926;2023-05-23T11:01:23;101372.81;;;18.27;48.15
70909;BME280;58554;52.006;5.926;2023-05-23T11:03:51;101397.25;;;18.45;47.85
70909;BME280;58554;52.006;5.926;2023-05-23T11:06:28;101394.69;;;18.54;47.15
70909;BME280;58554;52.006;5.926;2023-05-23T11:09:02;101406.72;;;18.60;47.50
70909;BME280;58554;52.006;5.926;2023-05-23T11:11:51;101394.94;;;18.63;46.75
70909;BME280;58554;52.006;5.926;2023-05-23T11:14:30;101397.00;;;18.59;46.84
70909;BME280;58554;52.006;5.926;2023-05-23T11:16:59;101396.72;;;18.62;47.20
70909;BME280;58554;52.006;5.926;2023-05-23T11:19:54;101392.59;;;18.69;46.33
70909;BME280;58554;52.006;5.926;2023-05-23T11:22:26;101386.88;;;18.74;46.53
70909;BME280;58554;52.006;5.926;2023-05-23T11:24:54;101393.44;;;18.81;46.43
70909;BME280;58554;52.006;5.926;2023-05-23T11:27:26;101385.59;;;18.89;46.38
70909;BME280;58554;52.006;5.926;2023-05-23T11:30:02;101382.94;;;18.89;46.01
70909;BME280;58554;52.006;5.926;2023-05-23T11:32:32;101395.03;;;18.84;45.94
70909;BME280;58554;52.006;5.926;2023-05-23T11:34:59;101400.28;;;18.74;46.21
70909;BME280;58554;52.006;5.926;2023-05-23T11:37:27;101407.81;;;18.69;46.05
70909;BME280;58554;52.006;5.926;2023-05-23T11:39:54;101406.59;;;18.61;45.95
70909;BME280;58554;52.006;5.926;2023-05-23T11:42:21;101408.94;;;18.55;46.16
70909;BME280;58554;52.006;5.926;2023-05-23T11:44:48;101410.50;;;18.57;46.13
70909;BME280;58554;52.006;5.926;2023-05-23T11:47:18;101401.59;;;18.68;45.80
70909;BME280;58554;52.006;5.926;2023-05-23T11:49:46;101407.31;;;18.75;45.56
70909;BME280;58554;52.006;5.926;2023-05-23T11:52:13;101404.75;;;18.85;45.49
70909;BME280;58554;52.006;5.926;2023-05-23T11:54:40;101410.59;;;18.90;45.46
70909;BME280;58554;52.006;5.926;2023-05-23T11:57:07;101416.31;;;18.96;45.47
70909;BME280;58554;52.006;5.926;2023-05-23T11:59:34;101407.88;;;19.01;45.70
70909;BME280;58554;52.006;5.926;2023-05-23T12:02:01;101412.44;;;19.10;45.30
70909;BME280;58554;52.006;5.926;2023-05-23T12:04:30;101414.38;;;19.19;45.09
70909;BME280;58554;52.006;5.926;2023-05-23T12:07:03;101417.41;;;19.26;45.00
70909;BME280;58554;52.006;5.926;2023-05-23T12:09:31;101419.84;;;19.29;44.85
70909;BME280;58554;52.006;5.926;2023-05-23T12:11:57;101408.63;;;19.24;44.34
70909;BME280;58554;52.006;5.926;2023-05-23T12:14:27;101421.22;;;19.12;44.28
70909;BME280;58554;52.006;5.926;2023-05-23T12:16:54;101411.53;;;19.00;44.38
70909;BME280;58554;52.006;5.926;2023-05-23T12:19:20;101419.72;;;18.98;44.70
70909;BME280;58554;52.006;5.926;2023-05-23T12:21:49;101423.13;;;19.00;44.50
70909;BME280;58554;52.006;5.926;2023-05-23T12:24:17;101425.78;;;19.00;44.51
70909;BME280;58554;52.006;5.926;2023-05-23T12:26:49;101420.22;;;18.92;43.76
70909;BME280;58554;52.006;5.926;2023-05-23T12:29:18;101422.91;;;18.81;43.93
70909;BME280;58554;52.006;5.926;2023-05-23T12:31:49;101420.50;;;18.78;43.95
70909;BME280;58554;52.006;5.926;2023-05-23T12:34:18;101429.97;;;18.82;44.38
70909;BME280;58554;52.006;5.926;2023-05-23T12:36:45;101429.22;;;18.91;44.12
70909;BME280;58554;52.006;5.926;2023-05-23T12:39:14;101433.84;;;19.00;44.01
70909;BME280;58554;52.006;5.926;2023-05-23T12:41:41;101421.59;;;19.08;44.05
70909;BME280;58554;52.006;5.926;2023-05-23T12:44:08;101430.88;;;19.15;43.54
70909;BME280;58554;52.006;5.926;2023-05-23T12:46:34;101428.75;;;19.18;43.74
70909;BME280;58554;52.006;5.926;2023-05-23T12:49:01;101428.84;;;19.28;43.34
70909;BME280;58554;52.006;5.926;2023-05-23T12:51:28;101430.28;;;19.32;43.35
70909;BME280;58554;52.006;5.926;2023-05-23T12:53:54;101436.66;;;19.31;43.41
70909;BME280;58554;52.006;5.926;2023-05-23T12:56:24;101443.25;;;19.27;43.20